createdAt,value
2022-12-15T00:00:20.454Z,1.83
2022-12-15T00:03:06.028Z,1.23
2022-12-15T00:05:51.628Z,1.27
2022-12-15T00:08:37.491Z,1.30
2022-12-15T00:11:23.897Z,2.30
2022-12-15T00:14:09.860Z,2.60
2022-12-15T00:16:57.070Z,1.83
2022-12-15T00:19:42.412Z,2.13
2022-12-15T00:22:28.018Z,1.23
2022-12-15T00:25:13.556Z,0.83
2022-12-15T00:27:58.966Z,2.67
2022-12-15T00:30:54.044Z,1.97
2022-12-15T00:33:42.839Z,1.23
2022-12-15T00:36:28.169Z,1.23
2022-12-15T00:39:01.948Z,0.87
2022-12-15T00:41:31.854Z,1.30
2022-12-15T00:44:00.083Z,0.47
2022-12-15T00:46:47.049Z,2.40
2022-12-15T00:49:29.171Z,1.20
2022-12-15T00:52:14.618Z,2.53
2022-12-15T00:54:59.951Z,1.77
2022-12-15T00:57:45.316Z,0.60
2022-12-15T01:00:31.932Z,1.43
2022-12-15T01:03:18.891Z,3.47
2022-12-15T01:06:04.374Z,3.00
2022-12-15T01:08:49.990Z,1.20
2022-12-15T01:11:35.368Z,1.43
2022-12-15T01:14:20.696Z,2.37
2022-12-15T01:17:06.070Z,1.43
2022-12-15T01:19:53.077Z,1.20
2022-12-15T01:22:21.213Z,2.33
2022-12-15T01:24:49.374Z,2.63
2022-12-15T01:27:17.627Z,1.47
2022-12-15T01:29:45.837Z,1.63
2022-12-15T01:32:14.274Z,2.40
2022-12-15T01:34:43.851Z,1.33
2022-12-15T01:37:11.955Z,1.00
2022-12-15T01:39:57.517Z,0.77
2022-12-15T01:42:25.688Z,1.67
2022-12-15T01:44:55.076Z,1.00
2022-12-15T01:47:26.300Z,3.03
2022-12-15T01:49:56.857Z,2.70
2022-12-15T01:52:25.009Z,2.53
2022-12-15T01:54:59.004Z,1.80
2022-12-15T01:57:31.579Z,4.07
2022-12-15T02:00:02.770Z,1.10
2022-12-15T02:02:39.737Z,2.50
2022-12-15T02:05:11.473Z,0.73
2022-12-15T02:07:39.713Z,1.80
2022-12-15T02:10:10.355Z,2.80
2022-12-15T02:12:42.973Z,0.50
2022-12-15T02:15:20.330Z,2.43
2022-12-15T02:17:56.247Z,1.97
2022-12-15T02:20:44.411Z,0.73
2022-12-15T02:24:03.356Z,1.53
2022-12-15T02:27:10.277Z,2.80
2022-12-15T02:30:17.081Z,2.43
2022-12-15T02:32:51.378Z,1.87
2022-12-15T02:35:27.132Z,3.23
2022-12-15T02:37:55.724Z,1.73
2022-12-15T02:40:23.953Z,0.47
2022-12-15T02:42:54.960Z,2.03
2022-12-15T02:45:32.887Z,1.30
2022-12-15T02:48:12.753Z,2.03
2022-12-15T02:50:55.541Z,4.10
2022-12-15T02:53:46.005Z,0.50
2022-12-15T02:56:19.592Z,1.30
2022-12-15T02:58:55.241Z,1.27
2022-12-15T03:01:31.969Z,1.47
2022-12-15T03:04:03.322Z,1.93
2022-12-15T03:06:31.558Z,0.63
2022-12-15T03:08:59.732Z,1.20
2022-12-15T03:11:28.191Z,2.90
2022-12-15T03:13:56.604Z,2.20
2022-12-15T03:16:26.213Z,2.73
2022-12-15T03:18:54.504Z,1.53
2022-12-15T03:21:22.715Z,3.10
2022-12-15T03:23:50.908Z,1.50
2022-12-15T03:26:19.031Z,1.17
2022-12-15T03:28:47.169Z,1.60
2022-12-15T03:31:15.467Z,2.37
2022-12-15T03:33:45.141Z,1.90
2022-12-15T03:36:13.325Z,1.47
2022-12-15T03:38:41.492Z,1.73
2022-12-15T03:41:09.645Z,2.37
2022-12-15T03:43:37.779Z,1.97
2022-12-15T03:46:06.173Z,1.87
2022-12-15T03:48:34.437Z,1.93
2022-12-15T03:51:03.990Z,1.00
2022-12-15T03:53:32.488Z,1.50
2022-12-15T03:56:00.926Z,2.13
2022-12-15T03:58:29.127Z,2.97
2022-12-15T04:00:57.539Z,2.20
2022-12-15T04:03:25.955Z,2.40
2022-12-15T04:05:54.142Z,1.47
2022-12-15T04:08:26.715Z,0.93
2022-12-15T04:10:55.147Z,2.87
2022-12-15T04:13:23.457Z,2.03
2022-12-15T04:15:51.709Z,2.67
2022-12-15T04:18:19.980Z,2.17
2022-12-15T04:20:47.150Z,2.63
2022-12-15T04:23:18.590Z,1.40
2022-12-15T04:26:05.381Z,1.37
2022-12-15T04:28:50.781Z,1.23
2022-12-15T04:31:39.566Z,1.17
2022-12-15T04:34:30.156Z,1.67
2022-12-15T04:37:16.070Z,2.93
2022-12-15T04:40:04.393Z,0.60
2022-12-15T04:42:52.540Z,3.30
2022-12-15T04:45:42.028Z,2.17
2022-12-15T04:48:28.299Z,1.73
2022-12-15T04:51:14.518Z,3.40
2022-12-15T04:54:01.400Z,1.17
2022-12-15T04:56:47.360Z,0.40
2022-12-15T04:59:37.450Z,0.63
2022-12-15T05:02:23.134Z,1.10
2022-12-15T05:05:08.697Z,0.73
2022-12-15T05:07:54.205Z,1.93
2022-12-15T05:10:39.552Z,0.53
2022-12-15T05:13:25.874Z,2.97
2022-12-15T05:16:12.842Z,2.27
2022-12-15T05:18:58.084Z,1.03
2022-12-15T05:21:43.564Z,1.27
2022-12-15T05:24:28.909Z,4.03
2022-12-15T05:27:14.393Z,0.83
2022-12-15T05:30:00.354Z,1.43
2022-12-15T05:32:32.353Z,1.40
2022-12-15T05:35:01.267Z,1.27
2022-12-15T05:37:29.219Z,2.70
2022-12-15T05:39:57.180Z,0.33
2022-12-15T05:42:25.154Z,2.67
2022-12-15T05:44:53.136Z,1.93
2022-12-15T05:47:21.149Z,5.57
2022-12-15T05:49:51.298Z,2.47
2022-12-15T05:52:19.342Z,4.07
2022-12-15T05:54:47.532Z,1.93
2022-12-15T05:57:15.660Z,2.50
2022-12-15T05:59:43.645Z,1.70
2022-12-15T06:02:12.012Z,2.23
2022-12-15T06:04:42.045Z,3.20
2022-12-15T06:07:11.513Z,2.10
2022-12-15T06:09:39.786Z,9.80
2022-12-15T06:12:08.320Z,5.47
2022-12-15T06:14:36.516Z,5.33
2022-12-15T06:17:05.096Z,3.30
2022-12-15T06:19:33.324Z,0.93
2022-12-15T06:22:01.465Z,2.13
2022-12-15T06:24:31.102Z,3.00
2022-12-15T06:26:59.287Z,4.40
2022-12-15T06:29:27.404Z,3.77
2022-12-15T06:31:55.791Z,8.47
2022-12-15T06:34:23.973Z,9.67
2022-12-15T06:36:52.054Z,8.60
2022-12-15T06:39:20.549Z,9.27
2022-12-15T06:41:50.244Z,7.00
2022-12-15T06:44:18.288Z,3.30
2022-12-15T06:46:46.795Z,5.20
2022-12-15T06:49:15.561Z,2.87
2022-12-15T06:51:45.270Z,2.30
2022-12-15T06:54:13.544Z,2.53
2022-12-15T06:56:42.463Z,3.17
2022-12-15T06:59:13.352Z,2.37
2022-12-15T07:01:43.022Z,1.30
2022-12-15T07:04:11.796Z,2.07
2022-12-15T07:06:41.050Z,2.67
2022-12-15T07:09:15.969Z,1.57
2022-12-15T07:11:45.261Z,3.90
2022-12-15T07:14:14.781Z,1.57
2022-12-15T07:16:42.928Z,1.27
2022-12-15T07:19:13.805Z,2.33
2022-12-15T07:21:42.455Z,2.70
2022-12-15T07:24:12.724Z,1.63
2022-12-15T07:26:40.882Z,1.33
2022-12-15T07:29:08.920Z,1.73
2022-12-15T07:31:38.428Z,1.63
2022-12-15T07:34:06.705Z,2.57
2022-12-15T07:36:34.951Z,0.87
2022-12-15T07:39:05.799Z,3.53
2022-12-15T07:41:34.277Z,1.67
2022-12-15T07:44:03.363Z,3.27
2022-12-15T07:46:31.502Z,1.63
2022-12-15T07:49:01.052Z,2.30
2022-12-15T07:51:29.198Z,1.77
2022-12-15T07:53:58.428Z,2.63
2022-12-15T07:56:33.260Z,3.53
2022-12-15T07:59:06.418Z,2.70
2022-12-15T08:01:36.561Z,2.03
2022-12-15T08:04:07.894Z,1.00
2022-12-15T08:06:37.607Z,3.37
2022-12-15T08:09:08.391Z,2.10
2022-12-15T08:11:37.484Z,2.47
2022-12-15T08:14:13.250Z,2.37
2022-12-15T08:16:46.809Z,2.23
2022-12-15T08:19:18.068Z,2.23
2022-12-15T08:21:47.147Z,1.30
2022-12-15T08:24:17.181Z,1.47
2022-12-15T08:26:50.273Z,2.47
2022-12-15T08:32:07.845Z,2.37
2022-12-15T08:34:37.786Z,3.57
2022-12-15T08:37:07.033Z,1.23
2022-12-15T08:39:35.226Z,2.07
2022-12-15T08:42:03.255Z,1.77
2022-12-15T08:44:31.510Z,4.13
2022-12-15T08:47:02.679Z,3.63
2022-12-15T08:49:31.116Z,2.27
2022-12-15T08:52:00.448Z,1.30
2022-12-15T08:54:28.540Z,3.13
2022-12-15T08:56:56.716Z,2.60
2022-12-15T08:59:26.152Z,0.20
2022-12-15T09:07:55.421Z,1.33
2022-12-15T09:10:23.729Z,2.43
2022-12-15T09:12:53.782Z,1.70
2022-12-15T09:23:37.644Z,3.67
2022-12-15T09:26:16.693Z,1.23
2022-12-15T09:28:45.538Z,2.80
2022-12-15T09:31:23.691Z,2.23
2022-12-15T09:36:41.462Z,5.67
2022-12-15T09:39:20.211Z,1.70
2022-12-15T09:44:56.955Z,1.37
2022-12-15T09:50:20.223Z,3.80
2022-12-15T09:52:51.717Z,3.37
2022-12-15T09:55:25.763Z,1.90
2022-12-15T09:57:56.271Z,0.93
2022-12-15T10:00:26.016Z,1.97
2022-12-15T10:03:18.459Z,3.47
2022-12-15T10:06:20.162Z,2.10
2022-12-15T10:09:02.059Z,3.67
2022-12-15T10:14:35.650Z,2.50
2022-12-15T10:17:25.355Z,3.47
2022-12-15T10:19:57.021Z,2.67
2022-12-15T10:22:28.967Z,4.87
2022-12-15T10:25:10.183Z,1.27
2022-12-15T10:28:08.737Z,4.03
2022-12-15T10:30:41.375Z,2.37
2022-12-15T10:33:21.454Z,1.93
2022-12-15T10:35:53.401Z,3.25
2022-12-15T10:41:12.616Z,0.87
2022-12-15T10:43:46.951Z,3.80
2022-12-15T10:46:18.926Z,2.27
2022-12-15T10:51:38.994Z,2.40
2022-12-15T10:54:14.057Z,2.97
2022-12-15T10:56:50.335Z,1.80
2022-12-15T10:59:31.775Z,1.23
2022-12-15T11:02:29.222Z,2.20
2022-12-15T11:05:04.533Z,3.30
2022-12-15T11:10:26.041Z,2.13
2022-12-15T11:13:03.107Z,2.40
2022-12-15T11:18:33.402Z,2.93
2022-12-15T11:21:06.355Z,3.27
2022-12-15T11:23:50.331Z,2.75
2022-12-15T11:26:30.377Z,2.20
2022-12-15T11:29:02.811Z,2.23
2022-12-15T11:31:40.907Z,2.83
2022-12-15T11:34:19.880Z,2.77
2022-12-15T11:37:11.081Z,2.73
2022-12-15T11:40:00.626Z,1.37
2022-12-15T11:42:38.931Z,4.37
2022-12-15T11:45:20.034Z,4.17
2022-12-15T11:47:52.945Z,3.00
2022-12-15T11:50:29.148Z,2.23
2022-12-15T11:53:36.416Z,1.07
2022-12-15T11:56:15.926Z,2.23
2022-12-15T11:59:16.340Z,2.77
2022-12-15T12:02:03.189Z,3.33
2022-12-15T12:04:45.058Z,2.10
2022-12-15T12:07:26.516Z,3.40
2022-12-15T12:10:04.670Z,2.40
2022-12-15T12:12:39.087Z,3.23
2022-12-15T12:15:25.914Z,3.13
2022-12-15T12:17:56.598Z,2.13
2022-12-15T12:20:29.407Z,6.90
2022-12-15T12:23:04.853Z,2.93
2022-12-15T12:25:39.783Z,3.07
2022-12-15T12:28:16.901Z,1.73
2022-12-15T12:30:50.712Z,2.17
2022-12-15T12:33:30.709Z,2.03
2022-12-15T12:36:04.207Z,2.20
2022-12-15T12:38:39.396Z,3.00
2022-12-15T12:41:13.178Z,2.57
2022-12-15T12:43:45.753Z,3.10
2022-12-15T12:46:24.225Z,17.23
2022-12-15T12:48:59.502Z,7.00
2022-12-15T12:51:30.819Z,7.60
2022-12-15T12:54:01.359Z,5.20
2022-12-15T12:56:40.226Z,11.33
2022-12-15T12:59:37.522Z,9.20
2022-12-15T13:02:54.549Z,7.93
2022-12-15T13:05:32.003Z,10.70
2022-12-15T13:08:29.286Z,9.97
2022-12-15T13:11:38.350Z,8.00
2022-12-15T13:17:26.068Z,1.70
2022-12-15T13:20:29.430Z,4.37
2022-12-15T13:23:36.477Z,3.13
2022-12-15T13:26:20.860Z,4.87
2022-12-15T13:28:53.310Z,4.13
2022-12-15T13:31:34.711Z,1.30
2022-12-15T13:34:13.936Z,1.07
2022-12-15T13:36:55.314Z,2.27
2022-12-15T13:39:56.294Z,2.37
2022-12-15T13:42:37.337Z,1.13
2022-12-15T13:45:43.910Z,3.50
2022-12-15T13:48:31.864Z,3.50
2022-12-15T13:51:06.999Z,2.10
2022-12-15T13:53:42.428Z,2.77
2022-12-15T13:56:37.870Z,3.03
2022-12-15T13:59:17.328Z,0.67
2022-12-15T14:01:51.544Z,1.50
2022-12-15T14:04:21.826Z,2.57
2022-12-15T14:06:53.145Z,0.43
2022-12-15T14:09:25.181Z,2.00
2022-12-15T14:14:49.028Z,1.70
2022-12-15T14:17:19.695Z,1.43
2022-12-15T14:19:51.432Z,3.10
2022-12-15T14:22:27.582Z,2.33
2022-12-15T14:25:03.311Z,1.17
2022-12-15T14:27:33.557Z,2.07
2022-12-15T14:30:23.265Z,0.77
2022-12-15T14:32:55.613Z,2.40
2022-12-15T14:35:29.916Z,2.80
2022-12-15T14:38:00.559Z,2.77
2022-12-15T14:40:29.696Z,3.83
2022-12-15T14:42:57.917Z,3.83
2022-12-15T14:45:29.958Z,1.40
2022-12-15T14:50:51.426Z,2.70
2022-12-15T14:53:21.171Z,1.90
2022-12-15T14:55:49.283Z,3.80
2022-12-15T14:58:34.378Z,3.90
2022-12-15T15:01:04.344Z,2.53
2022-12-15T15:03:05.231Z,8.60
2022-12-15T15:03:12.306Z,1.37
2022-12-15T15:03:38.381Z,5.23
2022-12-15T15:06:18.912Z,4.37
2022-12-15T15:08:49.510Z,4.03
2022-12-15T15:11:29.886Z,4.40
2022-12-15T15:14:01.555Z,5.67
2022-12-15T15:16:29.916Z,2.30
2022-12-15T15:19:00.859Z,1.77
2022-12-15T15:21:32.109Z,1.67
2022-12-15T15:24:02.550Z,3.87
2022-12-15T15:26:31.052Z,3.67
2022-12-15T15:28:59.637Z,2.50
2022-12-15T15:31:36.786Z,2.57
2022-12-15T15:34:08.836Z,2.20
2022-12-15T15:36:40.097Z,5.07
2022-12-15T15:42:20.693Z,5.27
2022-12-15T15:44:53.101Z,1.10
2022-12-15T15:47:28.440Z,2.67
2022-12-15T15:50:06.407Z,4.03
2022-12-15T15:56:10.058Z,3.60
2022-12-15T15:58:38.264Z,7.47
2022-12-15T16:01:12.684Z,3.27
2022-12-15T16:03:42.587Z,3.63
2022-12-15T16:06:20.742Z,4.63
2022-12-15T16:15:24.575Z,1.13
2022-12-15T16:17:56.298Z,3.90
2022-12-15T16:20:28.507Z,2.53
2022-12-15T16:23:00.483Z,1.67
2022-12-15T16:25:41.261Z,1.57
2022-12-15T16:28:14.276Z,3.10
2022-12-15T16:30:44.482Z,3.80
2022-12-15T16:33:13.158Z,1.87
2022-12-15T16:35:42.659Z,3.60
2022-12-15T16:38:18.322Z,2.70
2022-12-15T16:40:48.242Z,1.40
2022-12-15T16:43:18.599Z,2.77
2022-12-15T16:45:51.186Z,4.57
2022-12-15T16:48:19.935Z,3.50
2022-12-15T16:50:53.288Z,7.57
2022-12-15T16:53:26.170Z,9.80
2022-12-15T16:55:56.502Z,10.20
2022-12-15T16:58:26.474Z,7.03
2022-12-15T17:00:56.635Z,7.73
2022-12-15T17:03:27.744Z,11.37
2022-12-15T17:05:58.246Z,17.20
2022-12-15T17:08:34.073Z,13.87
2022-12-15T17:11:02.887Z,23.83
2022-12-15T17:13:41.908Z,14.23
2022-12-15T17:16:15.295Z,23.23
2022-12-15T17:18:44.631Z,21.57
2022-12-15T17:21:17.831Z,11.27
2022-12-15T17:23:48.646Z,8.67
2022-12-15T17:26:29.125Z,12.77
2022-12-15T17:29:01.463Z,17.17
2022-12-15T17:31:35.550Z,10.27
2022-12-15T17:34:24.104Z,13.37
2022-12-15T17:36:52.403Z,5.47
2022-12-15T17:39:22.145Z,6.43
2022-12-15T17:42:05.901Z,4.77
2022-12-15T17:44:38.229Z,3.60
2022-12-15T17:47:09.583Z,2.87
2022-12-15T17:49:39.105Z,3.47
2022-12-15T17:52:14.283Z,3.63
2022-12-15T17:54:42.373Z,1.43
2022-12-15T17:57:13.502Z,1.13
2022-12-15T17:59:41.526Z,3.87
2022-12-15T18:02:16.512Z,3.07
2022-12-15T18:04:45.558Z,5.00
2022-12-15T18:07:16.826Z,5.10
2022-12-15T18:09:45.352Z,4.03
2022-12-15T18:12:21.749Z,2.63
2022-12-15T18:14:49.990Z,3.77
2022-12-15T18:17:19.939Z,2.63
2022-12-15T18:19:48.021Z,3.17
2022-12-15T18:22:20.400Z,1.13
2022-12-15T18:24:48.581Z,2.00
2022-12-15T18:27:23.568Z,1.43
2022-12-15T18:29:52.045Z,1.60
2022-12-15T18:32:24.308Z,1.33
2022-12-15T18:34:52.482Z,2.73
2022-12-15T18:37:23.416Z,1.60
2022-12-15T18:39:51.797Z,1.03
2022-12-15T18:42:23.000Z,2.53
2022-12-15T18:44:53.450Z,2.67
2022-12-15T18:47:25.135Z,1.83
2022-12-15T18:49:53.234Z,2.20
2022-12-15T18:52:23.706Z,2.63
2022-12-15T18:54:53.994Z,2.43
2022-12-15T18:57:31.556Z,2.23
2022-12-15T19:00:00.612Z,1.93
2022-12-15T19:02:30.126Z,2.87
2022-12-15T19:04:58.423Z,3.30
2022-12-15T19:07:26.791Z,1.47
2022-12-15T19:09:55.069Z,1.60
2022-12-15T19:12:23.296Z,2.60
2022-12-15T19:14:55.079Z,2.63
2022-12-15T19:17:42.114Z,2.90
2022-12-15T19:20:35.148Z,1.90
2022-12-15T19:23:03.614Z,3.50
2022-12-15T19:25:32.392Z,1.63
2022-12-15T19:28:01.726Z,2.93
2022-12-15T19:30:37.106Z,1.63
2022-12-15T19:33:08.398Z,2.77
2022-12-15T19:35:38.902Z,2.20
2022-12-15T19:38:08.689Z,2.33
2022-12-15T19:40:38.568Z,1.27
2022-12-15T19:43:06.774Z,1.77
2022-12-15T19:45:35.426Z,2.67
2022-12-15T19:48:03.566Z,1.23
2022-12-15T19:50:36.137Z,3.40
2022-12-15T19:53:12.522Z,2.43
2022-12-15T19:55:44.121Z,3.80
2022-12-15T19:58:28.524Z,1.53
2022-12-15T20:00:58.571Z,1.23
2022-12-15T20:03:27.388Z,1.77
2022-12-15T20:05:57.121Z,3.97
2022-12-15T20:08:29.129Z,0.93
2022-12-15T20:10:57.518Z,1.80
2022-12-15T20:13:26.412Z,3.27
2022-12-15T20:15:54.643Z,2.90
2022-12-15T20:18:22.758Z,3.97
2022-12-15T20:20:51.226Z,2.10
2022-12-15T20:23:23.626Z,3.77
2022-12-15T20:25:53.552Z,1.70
2022-12-15T20:28:24.676Z,0.60
2022-12-15T20:30:53.214Z,3.40
2022-12-15T20:33:21.944Z,2.60
2022-12-15T20:35:51.656Z,2.63
2022-12-15T20:38:27.429Z,2.87
2022-12-15T20:40:57.090Z,3.67
2022-12-15T20:43:27.345Z,4.70
2022-12-15T20:46:03.141Z,2.87
2022-12-15T20:48:31.896Z,3.20
2022-12-15T20:51:03.039Z,2.33
2022-12-15T20:53:34.645Z,5.10
2022-12-15T20:56:04.879Z,1.93
2022-12-15T20:58:40.819Z,4.90
2022-12-15T21:01:19.557Z,2.57
2022-12-15T21:03:49.272Z,2.67
2022-12-15T21:06:21.122Z,3.53
2022-12-15T21:08:50.475Z,5.37
2022-12-15T21:11:22.487Z,6.23
2022-12-15T21:13:52.080Z,1.20
2022-12-15T21:16:23.099Z,1.07
2022-12-15T21:19:23.017Z,4.20
2022-12-15T21:21:43.014Z,1.40
2022-12-15T21:24:16.624Z,2.10
2022-12-15T21:26:46.678Z,1.37
2022-12-15T21:29:16.718Z,2.10
2022-12-15T21:31:45.332Z,1.70
2022-12-15T21:34:13.573Z,1.60
2022-12-15T21:36:43.653Z,2.47
2022-12-15T21:39:16.477Z,1.80
2022-12-15T21:41:45.997Z,3.03
2022-12-15T21:44:14.756Z,1.83
2022-12-15T21:46:43.418Z,4.73
2022-12-15T21:49:18.185Z,2.53
2022-12-15T21:51:48.425Z,2.10
2022-12-15T21:54:19.354Z,1.17
2022-12-15T21:56:49.740Z,0.93
2022-12-15T21:59:20.269Z,1.53
2022-12-15T22:01:49.258Z,2.47
2022-12-15T22:04:20.291Z,0.93
2022-12-15T22:06:50.934Z,1.47
2022-12-15T22:09:19.699Z,1.97
2022-12-15T22:11:51.257Z,2.67
2022-12-15T22:14:25.415Z,2.30
2022-12-15T22:16:53.819Z,0.40
2022-12-15T22:19:23.495Z,1.27
2022-12-15T22:21:52.408Z,3.53
2022-12-15T22:24:21.169Z,2.53
2022-12-15T22:26:50.636Z,1.87
2022-12-15T22:29:20.654Z,1.53
2022-12-15T22:31:49.681Z,0.77
2022-12-15T22:34:20.606Z,3.07
2022-12-15T22:36:49.035Z,1.83
2022-12-15T22:39:17.069Z,2.23
2022-12-15T22:41:47.382Z,2.47
2022-12-15T22:44:20.652Z,2.60
2022-12-15T22:46:49.581Z,2.67
2022-12-15T22:49:22.551Z,1.37
2022-12-15T22:51:50.838Z,0.83
2022-12-15T22:54:20.835Z,1.27
2022-12-15T22:56:50.868Z,2.23
2022-12-15T22:59:26.052Z,2.20
2022-12-15T23:01:54.280Z,0.50
2022-12-15T23:04:23.207Z,1.13
2022-12-15T23:06:51.717Z,5.10
2022-12-15T23:09:19.963Z,1.70
2022-12-15T23:11:46.928Z,1.37
2022-12-15T23:14:16.836Z,1.50
2022-12-15T23:16:46.594Z,2.97
2022-12-15T23:19:24.006Z,1.70
2022-12-15T23:21:52.240Z,2.17
2022-12-15T23:24:20.306Z,1.13
2022-12-15T23:26:48.439Z,1.80
2022-12-15T23:29:16.696Z,2.13
2022-12-15T23:31:46.262Z,2.07
2022-12-15T23:34:14.453Z,2.17
2022-12-15T23:36:42.484Z,1.90
2022-12-15T23:39:10.568Z,4.07
2022-12-15T23:41:38.874Z,2.60
2022-12-15T23:44:07.396Z,0.60
2022-12-15T23:46:35.471Z,1.10
2022-12-15T23:49:04.938Z,1.73
2022-12-15T23:51:33.274Z,3.43
2022-12-15T23:54:01.681Z,3.27
2022-12-15T23:56:29.674Z,1.97
2022-12-15T23:58:59.747Z,3.17
